createdAt,value
2023-11-15T04:22:49.486Z,99309.00
2023-11-15T04:25:52.651Z,99305.22
2023-11-15T04:28:54.924Z,99299.06
2023-11-15T04:31:57.373Z,99294.88
2023-11-15T04:34:59.562Z,99282.56
2023-11-15T04:38:04.610Z,99288.62
2023-11-15T04:41:08.050Z,99296.72
2023-11-15T04:44:11.130Z,99298.50
2023-11-15T04:47:13.402Z,99298.34
2023-11-15T04:50:15.939Z,99296.72
2023-11-15T04:53:18.082Z,99301.00
2023-11-15T04:56:20.651Z,99298.66
2023-11-15T04:59:22.837Z,99303.69
2023-11-15T05:02:28.468Z,99296.53
2023-11-15T05:05:30.869Z,99294.28
2023-11-15T05:08:33.347Z,99289.75
2023-11-15T05:11:35.864Z,99295.03
2023-11-15T05:14:38.402Z,99286.84
2023-11-15T05:17:40.625Z,99286.19
2023-11-15T05:20:45.032Z,99281.19
2023-11-15T05:23:47.190Z,99286.13
2023-11-15T05:26:51.385Z,99279.00
2023-11-15T05:29:53.647Z,99286.50
2023-11-15T05:32:56.203Z,99295.59
2023-11-15T05:35:58.440Z,99305.69
2023-11-15T05:39:00.929Z,99297.47
2023-11-15T05:42:03.390Z,99292.66
2023-11-15T05:45:06.550Z,99294.94
2023-11-15T05:48:08.808Z,99288.78
2023-11-15T05:51:11.334Z,99280.19
2023-11-15T05:54:13.617Z,99283.69
2023-11-15T05:57:16.113Z,99280.12
2023-11-15T06:00:22.094Z,99279.34
2023-11-15T06:03:25.377Z,99291.41
2023-11-15T06:06:28.889Z,99290.41
2023-11-15T06:09:31.659Z,99297.19
2023-11-15T06:12:33.810Z,99284.25
2023-11-15T06:15:36.281Z,99285.56
2023-11-15T06:18:39.541Z,99282.78
2023-11-15T06:21:45.555Z,99283.13
2023-11-15T06:24:47.821Z,99290.63
2023-11-15T06:27:50.414Z,99288.28
2023-11-15T06:30:53.254Z,99284.53
2023-11-15T06:33:56.061Z,99278.81
2023-11-15T06:36:59.722Z,99275.66
2023-11-15T06:40:08.604Z,99280.72
2023-11-15T06:43:12.890Z,99271.81
2023-11-15T06:46:20.910Z,99280.34
2023-11-15T06:49:23.783Z,99274.72
2023-11-15T06:52:26.434Z,99278.50
2023-11-15T06:55:28.909Z,99265.44
2023-11-15T06:58:31.681Z,99272.62
2023-11-15T07:01:34.052Z,99282.72
2023-11-15T07:04:39.646Z,99273.97
2023-11-15T07:07:42.080Z,99275.13
2023-11-15T07:10:47.718Z,99261.94
2023-11-15T07:13:50.214Z,99261.06
2023-11-15T07:16:59.748Z,99273.22
2023-11-15T07:20:02.079Z,99274.50
2023-11-15T07:23:04.894Z,99280.94
2023-11-15T07:26:07.536Z,99273.78
2023-11-15T07:29:15.155Z,99299.00
2023-11-15T07:32:18.435Z,99286.94
2023-11-15T07:35:21.604Z,99304.72
2023-11-15T07:38:24.816Z,99297.25
2023-11-15T07:45:37.574Z,99306.47
2023-11-15T07:48:40.706Z,99304.59
2023-11-15T07:51:43.638Z,99314.31
2023-11-15T07:54:46.191Z,99324.50
2023-11-15T07:57:48.355Z,99341.81
2023-11-15T08:00:52.052Z,99345.28
2023-11-15T08:03:54.911Z,99341.66
2023-11-15T08:06:57.521Z,99345.72
2023-11-15T08:10:00.576Z,99347.59
2023-11-15T08:13:03.502Z,99363.22
2023-11-15T08:16:12.179Z,99356.03
2023-11-15T08:19:14.834Z,99374.22
2023-11-15T08:22:17.389Z,99362.75
2023-11-15T08:25:21.909Z,99384.59
2023-11-15T08:28:26.871Z,99374.50
2023-11-15T08:31:29.818Z,99355.28
2023-11-15T08:34:33.185Z,99380.03
2023-11-15T08:37:35.679Z,99389.84
2023-11-15T08:40:38.902Z,99388.50
2023-11-15T08:43:41.102Z,99384.78
2023-11-15T08:46:44.069Z,99391.13
2023-11-15T08:49:46.346Z,99403.22
2023-11-15T08:52:49.573Z,99396.06
2023-11-15T08:55:52.305Z,99407.03
2023-11-15T08:58:55.459Z,99415.06
2023-11-15T09:01:57.927Z,99431.88
2023-11-15T09:05:10.141Z,99433.06
2023-11-15T09:08:12.442Z,99432.53
2023-11-15T09:11:14.958Z,99439.31
2023-11-15T09:14:17.546Z,99434.63
2023-11-15T09:17:22.162Z,99450.91
2023-11-15T09:20:28.740Z,99461.13
2023-11-15T09:23:37.597Z,99472.50
2023-11-15T09:26:40.039Z,99468.13
2023-11-15T09:29:42.561Z,99474.25
2023-11-15T09:32:46.422Z,99473.00
2023-11-15T09:35:55.014Z,99485.81
2023-11-15T09:39:04.654Z,99506.75
2023-11-15T09:42:10.882Z,99522.16
2023-11-15T09:45:18.580Z,99505.44
2023-11-15T09:48:23.119Z,99514.03
2023-11-15T09:51:26.127Z,99514.94
2023-11-15T09:54:30.317Z,99517.03
2023-11-15T09:57:37.274Z,99520.28
2023-11-15T10:00:41.303Z,99529.81
2023-11-15T10:03:43.939Z,99537.28
2023-11-15T10:06:46.615Z,99532.03
2023-11-15T10:09:49.131Z,99543.03
2023-11-15T10:12:55.861Z,99548.38
2023-11-15T10:15:59.015Z,99544.94
2023-11-15T10:19:01.708Z,99536.75
2023-11-15T10:22:06.620Z,99529.72
2023-11-15T10:25:09.829Z,99539.47
2023-11-15T10:28:14.201Z,99533.38
2023-11-15T10:31:19.921Z,99539.38
2023-11-15T10:34:34.102Z,99530.16
2023-11-15T10:37:49.783Z,99526.38
2023-11-15T10:40:53.566Z,99529.84
2023-11-15T10:43:56.896Z,99507.69
2023-11-15T10:47:02.920Z,99518.63
2023-11-15T10:50:09.666Z,99523.06
2023-11-15T10:53:12.952Z,99530.19
2023-11-15T10:56:20.674Z,99545.38
2023-11-15T10:59:26.504Z,99541.41
2023-11-15T11:02:32.955Z,99547.25
2023-11-15T11:06:04.362Z,99544.94
2023-11-15T11:09:23.636Z,99549.38
2023-11-15T11:12:26.701Z,99541.59
2023-11-15T11:15:33.443Z,99540.22
2023-11-15T11:18:37.135Z,99558.66
2023-11-15T11:22:07.997Z,99544.69
2023-11-15T11:25:11.966Z,99564.44
2023-11-15T11:28:15.035Z,99560.66
2023-11-15T11:31:21.035Z,99551.47
2023-11-15T11:34:26.013Z,99556.06
2023-11-15T11:37:44.671Z,99544.00
2023-11-15T11:40:48.620Z,99541.53
2023-11-15T11:43:57.865Z,99545.06
2023-11-15T11:47:03.916Z,99546.75
2023-11-15T11:50:09.589Z,99552.72
2023-11-15T11:53:12.628Z,99541.31
2023-11-15T11:56:15.396Z,99560.47
2023-11-15T11:59:18.273Z,99555.47
2023-11-15T12:02:32.715Z,99560.19
2023-11-15T12:05:35.759Z,99552.69
2023-11-15T12:08:40.339Z,99563.84
2023-11-15T12:11:46.030Z,99563.09
2023-11-15T12:14:52.800Z,99576.53
2023-11-15T12:18:00.530Z,99560.31
2023-11-15T12:21:03.232Z,99567.03
2023-11-15T12:24:07.595Z,99577.03
2023-11-15T12:27:10.616Z,99576.94
2023-11-15T12:30:13.414Z,99584.09
2023-11-15T12:33:16.219Z,99609.38
2023-11-15T12:36:20.298Z,99588.03
2023-11-15T12:39:23.496Z,99621.16
2023-11-15T12:42:29.616Z,99615.53
2023-11-15T12:45:33.744Z,99633.97
2023-11-15T12:48:41.902Z,99621.59
2023-11-15T12:51:48.674Z,99624.91
2023-11-15T12:54:57.665Z,99634.19
2023-11-15T12:57:59.877Z,99636.75
2023-11-15T13:01:08.516Z,99625.00
2023-11-15T13:04:13.618Z,99620.81
2023-11-15T13:07:19.242Z,99640.69
2023-11-15T13:10:21.505Z,99640.00
2023-11-15T13:13:27.229Z,99635.81
2023-11-15T13:16:29.584Z,99623.28
2023-11-15T13:19:32.057Z,99631.28
2023-11-15T13:22:35.410Z,99644.09
2023-11-15T13:25:39.140Z,99652.31
2023-11-15T13:28:43.333Z,99651.84
2023-11-15T13:31:45.828Z,99653.09
2023-11-15T13:34:51.649Z,99671.38
2023-11-15T13:37:57.216Z,99679.63
2023-11-15T13:41:00.139Z,99674.16
2023-11-15T13:44:02.966Z,99673.97
2023-11-15T13:47:07.938Z,99682.38
2023-11-15T13:50:12.122Z,99680.41
2023-11-15T13:53:14.807Z,99685.69
2023-11-15T13:56:17.489Z,99689.16
2023-11-15T13:59:21.340Z,99695.87
2023-11-15T14:02:24.894Z,99707.19
2023-11-15T14:05:27.459Z,99698.97
2023-11-15T14:08:47.010Z,99704.41
2023-11-15T14:12:00.629Z,99716.50
2023-11-15T14:15:03.614Z,99726.03
2023-11-15T14:18:06.203Z,99732.84
2023-11-15T14:21:08.660Z,99733.25
2023-11-15T14:24:12.148Z,99738.56
2023-11-15T14:27:17.207Z,99742.56
2023-11-15T14:30:22.872Z,99746.72
2023-11-15T14:33:25.269Z,99753.94
2023-11-15T14:36:28.631Z,99743.13
2023-11-15T14:39:32.843Z,99749.03
2023-11-15T14:42:35.592Z,99758.97
2023-11-15T14:45:37.823Z,99761.00
2023-11-15T14:48:40.407Z,99760.91
2023-11-15T14:51:49.492Z,99770.31
2023-11-15T14:54:52.239Z,99775.56
2023-11-15T14:57:54.802Z,99785.63
2023-11-15T15:00:57.527Z,99781.91
2023-11-15T15:04:00.204Z,99788.09
2023-11-15T15:07:03.146Z,99784.66
2023-11-15T15:10:10.201Z,99790.72
2023-11-15T15:13:13.984Z,99790.72
2023-11-15T15:16:17.791Z,99793.28
2023-11-15T15:19:22.274Z,99797.25
2023-11-15T15:22:27.347Z,99794.56
2023-11-15T15:25:31.757Z,99801.69
2023-11-15T15:28:34.479Z,99809.34
2023-11-15T15:31:38.018Z,99807.56
2023-11-15T15:34:41.730Z,99810.94
2023-11-15T15:37:48.046Z,99814.19
2023-11-15T15:40:50.341Z,99812.41
2023-11-15T15:43:55.720Z,99821.91
2023-11-15T15:46:59.180Z,99811.91
2023-11-15T15:50:01.903Z,99825.16
2023-11-15T15:53:04.082Z,99824.19
2023-11-15T15:56:06.895Z,99835.06
2023-11-15T15:59:09.486Z,99831.47
2023-11-15T16:02:12.138Z,99844.72
2023-11-15T16:05:19.300Z,99850.69
2023-11-15T16:08:21.626Z,99844.81
2023-11-15T16:11:24.353Z,99860.25
2023-11-15T16:14:26.660Z,99863.63
2023-11-15T16:17:35.311Z,99867.38
2023-11-15T16:20:38.598Z,99876.84
2023-11-15T16:23:42.215Z,99867.50
2023-11-15T16:26:44.883Z,99871.16
2023-11-15T16:29:48.084Z,99878.25
2023-11-15T16:32:50.317Z,99878.56
2023-11-15T16:35:52.789Z,99888.47
2023-11-15T16:38:54.993Z,99902.91
2023-11-15T16:41:58.586Z,99906.75
